sensor_id;sensor_type;location;lat;lon;timestamp;P1;durP1;ratioP1;P2;durP2;ratioP2
56637;SDS011;42507;51.982;20.140;2024-01-15T00:02:24;21.40;;;12.00;;
56637;SDS011;42507;51.982;20.140;2024-01-15T00:04:50;22.80;;;12.10;;
56637;SDS011;42507;51.982;20.140;2024-01-15T00:07:15;23.40;;;12.40;;
56637;SDS011;42507;51.982;20.140;2024-01-15T00:09:41;20.90;;;12.90;;
56637;SDS011;42507;51.982;20.140;2024-01-15T00:12:07;22.40;;;12.90;;
56637;SDS011;42507;51.982;20.140;2024-01-15T00:14:33;22.90;;;13.00;;
56637;SDS011;42507;51.982;20.140;2024-01-15T00:16:59;24.10;;;14.30;;
56637;SDS011;42507;51.982;20.140;2024-01-15T00:19:25;24.70;;;14.50;;
56637;SDS011;42507;51.982;20.140;2024-01-15T00:21:52;23.20;;;13.00;;
56637;SDS011;42507;51.982;20.140;2024-01-15T00:24:18;21.40;;;13.30;;
56637;SDS011;42507;51.982;20.140;2024-01-15T00:26:45;26.80;;;13.70;;
56637;SDS011;42507;51.982;20.140;2024-01-15T00:29:11;26.10;;;13.90;;
56637;SDS011;42507;51.982;20.140;2024-01-15T00:31:37;22.50;;;13.20;;
56637;SDS011;42507;51.982;20.140;2024-01-15T00:34:03;22.80;;;12.60;;
56637;SDS011;42507;51.982;20.140;2024-01-15T00:36:28;24.80;;;13.20;;
56637;SDS011;42507;51.982;20.140;2024-01-15T00:38:54;22.10;;;13.00;;
56637;SDS011;42507;51.982;20.140;2024-01-15T00:41:20;25.00;;;13.50;;
56637;SDS011;42507;51.982;20.140;2024-01-15T00:43:46;23.70;;;13.00;;
56637;SDS011;42507;51.982;20.140;2024-01-15T00:46:15;24.90;;;13.80;;
56637;SDS011;42507;51.982;20.140;2024-01-15T00:48:41;24.20;;;14.20;;
56637;SDS011;42507;51.982;20.140;2024-01-15T00:51:07;24.20;;;13.50;;
56637;SDS011;42507;51.982;20.140;2024-01-15T00:53:33;23.10;;;12.70;;
56637;SDS011;42507;51.982;20.140;2024-01-15T00:55:59;24.80;;;13.40;;
56637;SDS011;42507;51.982;20.140;2024-01-15T00:58:25;23.00;;;12.40;;
56637;SDS011;42507;51.982;20.140;2024-01-15T01:00:51;24.30;;;12.60;;
56637;SDS011;42507;51.982;20.140;2024-01-15T01:03:18;22.90;;;13.30;;
56637;SDS011;42507;51.982;20.140;2024-01-15T01:05:44;22.00;;;12.40;;
56637;SDS011;42507;51.982;20.140;2024-01-15T01:08:10;25.90;;;13.90;;
56637;SDS011;42507;51.982;20.140;2024-01-15T01:10:37;23.30;;;12.30;;
56637;SDS011;42507;51.982;20.140;2024-01-15T01:13:02;24.00;;;13.40;;
56637;SDS011;42507;51.982;20.140;2024-01-15T01:15:29;26.70;;;13.40;;
56637;SDS011;42507;51.982;20.140;2024-01-15T01:17:55;23.30;;;12.20;;
56637;SDS011;42507;51.982;20.140;2024-01-15T01:20:21;20.50;;;12.50;;
56637;SDS011;42507;51.982;20.140;2024-01-15T01:22:48;18.40;;;10.80;;
56637;SDS011;42507;51.982;20.140;2024-01-15T01:25:13;21.80;;;12.10;;
56637;SDS011;42507;51.982;20.140;2024-01-15T01:27:39;20.40;;;11.20;;
56637;SDS011;42507;51.982;20.140;2024-01-15T01:30:05;20.00;;;11.90;;
56637;SDS011;42507;51.982;20.140;2024-01-15T01:32:32;22.00;;;12.70;;
56637;SDS011;42507;51.982;20.140;2024-01-15T01:34:58;22.10;;;12.50;;
56637;SDS011;42507;51.982;20.140;2024-01-15T01:37:24;22.20;;;11.80;;
56637;SDS011;42507;51.982;20.140;2024-01-15T01:39:50;21.30;;;12.00;;
56637;SDS011;42507;51.982;20.140;2024-01-15T01:42:16;20.00;;;11.90;;
56637;SDS011;42507;51.982;20.140;2024-01-15T01:44:42;21.70;;;11.70;;
56637;SDS011;42507;51.982;20.140;2024-01-15T01:47:08;22.30;;;12.90;;
56637;SDS011;42507;51.982;20.140;2024-01-15T01:49:35;23.60;;;12.30;;
56637;SDS011;42507;51.982;20.140;2024-01-15T01:52:04;21.30;;;12.40;;
56637;SDS011;42507;51.982;20.140;2024-01-15T01:54:32;22.30;;;12.00;;
56637;SDS011;42507;51.982;20.140;2024-01-15T01:56:58;21.90;;;12.20;;
56637;SDS011;42507;51.982;20.140;2024-01-15T01:59:27;23.60;;;13.00;;
56637;SDS011;42507;51.982;20.140;2024-01-15T02:01:56;21.00;;;12.30;;
56637;SDS011;42507;51.982;20.140;2024-01-15T02:04:23;19.60;;;12.30;;
56637;SDS011;42507;51.982;20.140;2024-01-15T02:06:50;20.30;;;12.20;;
56637;SDS011;42507;51.982;20.140;2024-01-15T02:09:19;22.50;;;11.80;;
56637;SDS011;42507;51.982;20.140;2024-01-15T02:11:46;21.70;;;11.70;;
56637;SDS011;42507;51.982;20.140;2024-01-15T02:14:13;21.30;;;12.50;;
56637;SDS011;42507;51.982;20.140;2024-01-15T02:16:40;25.90;;;14.10;;
56637;SDS011;42507;51.982;20.140;2024-01-15T02:19:06;22.20;;;13.10;;
56637;SDS011;42507;51.982;20.140;2024-01-15T02:21:32;24.00;;;12.40;;
56637;SDS011;42507;51.982;20.140;2024-01-15T02:23:58;24.60;;;13.30;;
56637;SDS011;42507;51.982;20.140;2024-01-15T02:26:24;24.40;;;13.30;;
56637;SDS011;42507;51.982;20.140;2024-01-15T02:28:50;24.90;;;13.90;;
56637;SDS011;42507;51.982;20.140;2024-01-15T02:31:16;24.90;;;13.20;;
56637;SDS011;42507;51.982;20.140;2024-01-15T02:33:43;20.90;;;12.10;;
56637;SDS011;42507;51.982;20.140;2024-01-15T02:36:10;26.50;;;13.10;;
56637;SDS011;42507;51.982;20.140;2024-01-15T02:38:36;23.90;;;13.80;;
56637;SDS011;42507;51.982;20.140;2024-01-15T02:41:02;22.80;;;12.10;;
56637;SDS011;42507;51.982;20.140;2024-01-15T02:43:28;23.90;;;12.60;;
56637;SDS011;42507;51.982;20.140;2024-01-15T02:45:54;22.00;;;12.30;;
56637;SDS011;42507;51.982;20.140;2024-01-15T02:48:20;26.30;;;13.30;;
56637;SDS011;42507;51.982;20.140;2024-01-15T02:50:46;23.40;;;12.10;;
56637;SDS011;42507;51.982;20.140;2024-01-15T02:53:12;28.30;;;13.70;;
56637;SDS011;42507;51.982;20.140;2024-01-15T02:55:38;20.20;;;11.50;;
56637;SDS011;42507;51.982;20.140;2024-01-15T02:58:04;21.30;;;12.00;;
56637;SDS011;42507;51.982;20.140;2024-01-15T03:00:30;23.30;;;12.80;;
56637;SDS011;42507;51.982;20.140;2024-01-15T03:02:56;22.60;;;12.10;;
56637;SDS011;42507;51.982;20.140;2024-01-15T03:05:22;22.50;;;11.40;;
56637;SDS011;42507;51.982;20.140;2024-01-15T03:07:48;20.40;;;11.60;;
56637;SDS011;42507;51.982;20.140;2024-01-15T03:10:14;17.70;;;10.40;;
56637;SDS011;42507;51.982;20.140;2024-01-15T03:12:40;19.00;;;11.00;;
56637;SDS011;42507;51.982;20.140;2024-01-15T03:15:06;18.20;;;10.20;;
56637;SDS011;42507;51.982;20.140;2024-01-15T03:17:32;19.30;;;10.50;;
56637;SDS011;42507;51.982;20.140;2024-01-15T03:19:58;20.20;;;10.80;;
56637;SDS011;42507;51.982;20.140;2024-01-15T03:22:24;20.00;;;11.10;;
56637;SDS011;42507;51.982;20.140;2024-01-15T03:24:50;18.40;;;10.60;;
56637;SDS011;42507;51.982;20.140;2024-01-15T03:27:16;19.40;;;10.70;;
56637;SDS011;42507;51.982;20.140;2024-01-15T03:29:42;20.40;;;10.90;;
56637;SDS011;42507;51.982;20.140;2024-01-15T03:32:08;19.40;;;11.20;;
56637;SDS011;42507;51.982;20.140;2024-01-15T03:34:34;18.80;;;11.00;;
56637;SDS011;42507;51.982;20.140;2024-01-15T03:37:00;16.50;;;9.80;;
56637;SDS011;42507;51.982;20.140;2024-01-15T03:39:26;17.50;;;11.00;;
56637;SDS011;42507;51.982;20.140;2024-01-15T03:41:52;19.30;;;10.90;;
56637;SDS011;42507;51.982;20.140;2024-01-15T03:44:18;17.30;;;10.00;;
56637;SDS011;42507;51.982;20.140;2024-01-15T03:46:44;20.40;;;11.30;;
56637;SDS011;42507;51.982;20.140;2024-01-15T03:49:10;20.70;;;11.80;;
56637;SDS011;42507;51.982;20.140;2024-01-15T03:51:36;20.20;;;11.70;;
56637;SDS011;42507;51.982;20.140;2024-01-15T03:54:02;18.90;;;11.20;;
56637;SDS011;42507;51.982;20.140;2024-01-15T03:56:29;19.40;;;11.50;;
56637;SDS011;42507;51.982;20.140;2024-01-15T03:58:55;22.30;;;13.10;;
56637;SDS011;42507;51.982;20.140;2024-01-15T04:01:20;22.30;;;11.90;;
56637;SDS011;42507;51.982;20.140;2024-01-15T04:03:46;21.40;;;11.10;;
56637;SDS011;42507;51.982;20.140;2024-01-15T04:06:12;20.50;;;11.20;;
56637;SDS011;42507;51.982;20.140;2024-01-15T04:08:38;17.60;;;11.00;;
56637;SDS011;42507;51.982;20.140;2024-01-15T04:11:04;19.40;;;11.10;;
56637;SDS011;42507;51.982;20.140;2024-01-15T04:13:33;18.60;;;10.70;;
56637;SDS011;42507;51.982;20.140;2024-01-15T04:15:59;17.20;;;10.90;;
56637;SDS011;42507;51.982;20.140;2024-01-15T04:18:26;18.30;;;10.70;;
56637;SDS011;42507;51.982;20.140;2024-01-15T04:20:52;19.40;;;11.70;;
56637;SDS011;42507;51.982;20.140;2024-01-15T04:23:18;20.80;;;11.70;;
56637;SDS011;42507;51.982;20.140;2024-01-15T04:25:44;19.20;;;11.20;;
56637;SDS011;42507;51.982;20.140;2024-01-15T04:28:11;19.70;;;11.50;;
56637;SDS011;42507;51.982;20.140;2024-01-15T04:30:37;18.10;;;11.70;;
56637;SDS011;42507;51.982;20.140;2024-01-15T04:33:03;18.70;;;11.00;;
56637;SDS011;42507;51.982;20.140;2024-01-15T04:35:30;18.40;;;11.30;;
56637;SDS011;42507;51.982;20.140;2024-01-15T04:37:56;19.90;;;10.80;;
56637;SDS011;42507;51.982;20.140;2024-01-15T04:40:22;18.00;;;11.30;;
56637;SDS011;42507;51.982;20.140;2024-01-15T04:42:48;18.60;;;11.90;;
56637;SDS011;42507;51.982;20.140;2024-01-15T04:45:14;17.10;;;10.90;;
56637;SDS011;42507;51.982;20.140;2024-01-15T04:47:40;19.30;;;11.40;;
56637;SDS011;42507;51.982;20.140;2024-01-15T04:50:06;17.10;;;11.50;;
56637;SDS011;42507;51.982;20.140;2024-01-15T04:52:32;20.70;;;11.00;;
56637;SDS011;42507;51.982;20.140;2024-01-15T04:54:58;17.30;;;11.80;;
56637;SDS011;42507;51.982;20.140;2024-01-15T04:57:24;19.60;;;11.60;;
56637;SDS011;42507;51.982;20.140;2024-01-15T04:59:50;17.70;;;10.00;;
56637;SDS011;42507;51.982;20.140;2024-01-15T05:02:16;15.20;;;9.90;;
56637;SDS011;42507;51.982;20.140;2024-01-15T05:04:42;17.80;;;10.00;;
56637;SDS011;42507;51.982;20.140;2024-01-15T05:07:08;15.50;;;9.40;;
56637;SDS011;42507;51.982;20.140;2024-01-15T05:09:34;15.80;;;10.40;;
56637;SDS011;42507;51.982;20.140;2024-01-15T05:12:00;17.80;;;10.00;;
56637;SDS011;42507;51.982;20.140;2024-01-15T05:14:26;19.00;;;10.10;;
56637;SDS011;42507;51.982;20.140;2024-01-15T05:16:52;16.90;;;9.90;;
56637;SDS011;42507;51.982;20.140;2024-01-15T05:19:18;16.30;;;10.90;;
56637;SDS011;42507;51.982;20.140;2024-01-15T05:21:44;19.00;;;11.10;;
56637;SDS011;42507;51.982;20.140;2024-01-15T05:24:10;19.00;;;10.90;;
56637;SDS011;42507;51.982;20.140;2024-01-15T05:26:36;19.30;;;10.90;;
56637;SDS011;42507;51.982;20.140;2024-01-15T05:29:02;18.20;;;11.20;;
56637;SDS011;42507;51.982;20.140;2024-01-15T05:31:28;17.00;;;10.80;;
56637;SDS011;42507;51.982;20.140;2024-01-15T05:33:54;19.90;;;11.50;;
56637;SDS011;42507;51.982;20.140;2024-01-15T05:36:20;16.50;;;10.10;;
56637;SDS011;42507;51.982;20.140;2024-01-15T05:38:46;20.90;;;11.40;;
56637;SDS011;42507;51.982;20.140;2024-01-15T05:41:11;19.30;;;10.30;;
56637;SDS011;42507;51.982;20.140;2024-01-15T05:43:38;22.10;;;11.00;;
56637;SDS011;42507;51.982;20.140;2024-01-15T05:46:04;16.50;;;9.80;;
56637;SDS011;42507;51.982;20.140;2024-01-15T05:48:32;20.90;;;11.70;;
56637;SDS011;42507;51.982;20.140;2024-01-15T05:50:58;18.30;;;11.10;;
56637;SDS011;42507;51.982;20.140;2024-01-15T05:53:24;19.90;;;11.10;;
56637;SDS011;42507;51.982;20.140;2024-01-15T05:55:50;22.70;;;12.50;;
56637;SDS011;42507;51.982;20.140;2024-01-15T05:58:16;20.30;;;11.00;;
56637;SDS011;42507;51.982;20.140;2024-01-15T06:00:42;21.50;;;10.90;;
56637;SDS011;42507;51.982;20.140;2024-01-15T06:03:08;17.10;;;10.70;;
56637;SDS011;42507;51.982;20.140;2024-01-15T06:05:34;18.00;;;11.00;;
56637;SDS011;42507;51.982;20.140;2024-01-15T06:08:01;17.70;;;11.10;;
56637;SDS011;42507;51.982;20.140;2024-01-15T06:10:27;18.20;;;11.10;;
56637;SDS011;42507;51.982;20.140;2024-01-15T06:12:53;16.90;;;10.40;;
56637;SDS011;42507;51.982;20.140;2024-01-15T06:15:19;20.20;;;11.70;;
56637;SDS011;42507;51.982;20.140;2024-01-15T06:17:46;21.20;;;11.70;;
56637;SDS011;42507;51.982;20.140;2024-01-15T06:20:12;18.10;;;10.60;;
56637;SDS011;42507;51.982;20.140;2024-01-15T06:22:38;20.60;;;11.10;;
56637;SDS011;42507;51.982;20.140;2024-01-15T06:25:06;18.80;;;12.00;;
56637;SDS011;42507;51.982;20.140;2024-01-15T06:27:34;19.20;;;11.20;;
56637;SDS011;42507;51.982;20.140;2024-01-15T06:30:00;21.00;;;11.10;;
56637;SDS011;42507;51.982;20.140;2024-01-15T06:32:26;15.30;;;10.50;;
56637;SDS011;42507;51.982;20.140;2024-01-15T06:34:52;21.80;;;11.80;;
56637;SDS011;42507;51.982;20.140;2024-01-15T06:37:18;20.10;;;11.60;;
56637;SDS011;42507;51.982;20.140;2024-01-15T06:39:45;18.40;;;11.30;;
56637;SDS011;42507;51.982;20.140;2024-01-15T06:42:11;18.10;;;10.40;;
56637;SDS011;42507;51.982;20.140;2024-01-15T06:44:37;18.50;;;10.80;;
56637;SDS011;42507;51.982;20.140;2024-01-15T06:47:03;20.70;;;12.30;;
56637;SDS011;42507;51.982;20.140;2024-01-15T06:49:31;20.50;;;11.50;;
56637;SDS011;42507;51.982;20.140;2024-01-15T06:51:57;17.90;;;10.40;;
56637;SDS011;42507;51.982;20.140;2024-01-15T06:54:23;20.80;;;12.20;;
56637;SDS011;42507;51.982;20.140;2024-01-15T06:56:49;22.50;;;12.80;;
56637;SDS011;42507;51.982;20.140;2024-01-15T06:59:16;20.00;;;11.90;;
56637;SDS011;42507;51.982;20.140;2024-01-15T07:01:42;21.10;;;12.60;;
56637;SDS011;42507;51.982;20.140;2024-01-15T07:04:08;22.90;;;12.80;;
56637;SDS011;42507;51.982;20.140;2024-01-15T07:06:33;21.20;;;13.20;;
56637;SDS011;42507;51.982;20.140;2024-01-15T07:08:59;22.30;;;13.20;;
56637;SDS011;42507;51.982;20.140;2024-01-15T07:11:25;23.50;;;13.60;;
56637;SDS011;42507;51.982;20.140;2024-01-15T07:13:51;25.80;;;13.50;;
56637;SDS011;42507;51.982;20.140;2024-01-15T07:16:17;24.80;;;14.30;;
56637;SDS011;42507;51.982;20.140;2024-01-15T07:18:43;26.20;;;14.30;;
56637;SDS011;42507;51.982;20.140;2024-01-15T07:21:09;24.00;;;13.60;;
56637;SDS011;42507;51.982;20.140;2024-01-15T07:23:35;23.70;;;12.80;;
56637;SDS011;42507;51.982;20.140;2024-01-15T07:26:02;23.60;;;12.90;;
56637;SDS011;42507;51.982;20.140;2024-01-15T07:28:31;26.50;;;14.40;;
56637;SDS011;42507;51.982;20.140;2024-01-15T07:30:57;22.80;;;13.40;;
56637;SDS011;42507;51.982;20.140;2024-01-15T07:33:23;23.10;;;13.50;;
56637;SDS011;42507;51.982;20.140;2024-01-15T07:35:49;22.60;;;12.90;;
56637;SDS011;42507;51.982;20.140;2024-01-15T07:38:15;24.20;;;13.20;;
56637;SDS011;42507;51.982;20.140;2024-01-15T07:40:41;21.20;;;12.10;;
56637;SDS011;42507;51.982;20.140;2024-01-15T07:43:07;18.40;;;12.30;;
56637;SDS011;42507;51.982;20.140;2024-01-15T07:45:33;20.10;;;12.00;;
56637;SDS011;42507;51.982;20.140;2024-01-15T07:47:59;19.10;;;11.50;;
56637;SDS011;42507;51.982;20.140;2024-01-15T07:50:25;22.40;;;11.80;;
56637;SDS011;42507;51.982;20.140;2024-01-15T07:52:51;19.90;;;11.90;;
56637;SDS011;42507;51.982;20.140;2024-01-15T07:55:18;20.20;;;12.00;;
56637;SDS011;42507;51.982;20.140;2024-01-15T07:57:45;18.90;;;11.00;;
56637;SDS011;42507;51.982;20.140;2024-01-15T08:00:11;20.20;;;11.40;;
56637;SDS011;42507;51.982;20.140;2024-01-15T08:02:38;18.30;;;11.40;;
56637;SDS011;42507;51.982;20.140;2024-01-15T08:05:04;17.70;;;11.00;;
56637;SDS011;42507;51.982;20.140;2024-01-15T08:07:31;17.10;;;10.40;;
56637;SDS011;42507;51.982;20.140;2024-01-15T08:09:57;16.20;;;10.30;;
56637;SDS011;42507;51.982;20.140;2024-01-15T08:12:24;19.30;;;10.20;;
56637;SDS011;42507;51.982;20.140;2024-01-15T08:14:49;18.00;;;10.10;;
56637;SDS011;42507;51.982;20.140;2024-01-15T08:17:16;19.00;;;11.20;;
56637;SDS011;42507;51.982;20.140;2024-01-15T08:19:42;17.80;;;9.90;;
56637;SDS011;42507;51.982;20.140;2024-01-15T08:22:08;19.10;;;9.90;;
56637;SDS011;42507;51.982;20.140;2024-01-15T08:24:35;16.40;;;8.70;;
56637;SDS011;42507;51.982;20.140;2024-01-15T08:27:01;15.60;;;9.20;;
56637;SDS011;42507;51.982;20.140;2024-01-15T08:29:27;21.60;;;8.50;;
56637;SDS011;42507;51.982;20.140;2024-01-15T08:31:54;12.90;;;8.20;;
56637;SDS011;42507;51.982;20.140;2024-01-15T08:34:20;13.30;;;7.40;;
56637;SDS011;42507;51.982;20.140;2024-01-15T08:36:46;18.60;;;8.20;;
56637;SDS011;42507;51.982;20.140;2024-01-15T08:39:12;12.80;;;7.20;;
56637;SDS011;42507;51.982;20.140;2024-01-15T08:41:38;15.80;;;8.00;;
56637;SDS011;42507;51.982;20.140;2024-01-15T08:44:04;13.70;;;7.70;;
56637;SDS011;42507;51.982;20.140;2024-01-15T08:46:30;13.60;;;7.20;;
56637;SDS011;42507;51.982;20.140;2024-01-15T08:48:56;14.70;;;6.90;;
56637;SDS011;42507;51.982;20.140;2024-01-15T08:51:22;10.80;;;5.80;;
56637;SDS011;42507;51.982;20.140;2024-01-15T08:53:48;10.10;;;5.80;;
56637;SDS011;42507;51.982;20.140;2024-01-15T08:56:14;10.50;;;5.40;;
56637;SDS011;42507;51.982;20.140;2024-01-15T08:58:40;12.90;;;5.80;;
56637;SDS011;42507;51.982;20.140;2024-01-15T09:01:06;11.90;;;5.70;;
56637;SDS011;42507;51.982;20.140;2024-01-15T09:03:32;10.90;;;5.70;;
56637;SDS011;42507;51.982;20.140;2024-01-15T09:05:59;9.60;;;5.00;;
56637;SDS011;42507;51.982;20.140;2024-01-15T09:08:25;8.90;;;4.80;;
56637;SDS011;42507;51.982;20.140;2024-01-15T09:10:53;11.00;;;5.70;;
56637;SDS011;42507;51.982;20.140;2024-01-15T09:13:19;9.40;;;5.40;;
56637;SDS011;42507;51.982;20.140;2024-01-15T09:15:45;9.20;;;5.30;;
56637;SDS011;42507;51.982;20.140;2024-01-15T09:18:11;7.90;;;4.80;;
56637;SDS011;42507;51.982;20.140;2024-01-15T09:20:37;12.70;;;5.60;;
56637;SDS011;42507;51.982;20.140;2024-01-15T09:23:04;11.40;;;5.50;;
56637;SDS011;42507;51.982;20.140;2024-01-15T09:25:30;8.70;;;4.80;;
56637;SDS011;42507;51.982;20.140;2024-01-15T09:27:56;12.90;;;5.50;;
56637;SDS011;42507;51.982;20.140;2024-01-15T09:30:22;10.50;;;4.80;;
56637;SDS011;42507;51.982;20.140;2024-01-15T09:32:48;11.30;;;5.60;;
56637;SDS011;42507;51.982;20.140;2024-01-15T09:35:14;11.00;;;5.60;;
56637;SDS011;42507;51.982;20.140;2024-01-15T09:37:40;13.20;;;6.40;;
56637;SDS011;42507;51.982;20.140;2024-01-15T09:40:06;12.00;;;5.60;;
56637;SDS011;42507;51.982;20.140;2024-01-15T09:42:34;10.00;;;5.80;;
56637;SDS011;42507;51.982;20.140;2024-01-15T09:45:00;8.80;;;4.80;;
56637;SDS011;42507;51.982;20.140;2024-01-15T09:47:27;10.10;;;5.30;;
56637;SDS011;42507;51.982;20.140;2024-01-15T09:49:53;9.40;;;5.10;;
56637;SDS011;42507;51.982;20.140;2024-01-15T09:52:18;10.10;;;5.20;;
56637;SDS011;42507;51.982;20.140;2024-01-15T09:54:45;10.30;;;5.10;;
56637;SDS011;42507;51.982;20.140;2024-01-15T09:57:11;10.40;;;5.40;;
56637;SDS011;42507;51.982;20.140;2024-01-15T09:59:38;10.70;;;5.80;;
56637;SDS011;42507;51.982;20.140;2024-01-15T10:02:06;9.40;;;5.60;;
56637;SDS011;42507;51.982;20.140;2024-01-15T10:04:33;11.50;;;5.60;;
56637;SDS011;42507;51.982;20.140;2024-01-15T10:06:59;13.00;;;6.40;;
56637;SDS011;42507;51.982;20.140;2024-01-15T10:09:26;11.10;;;6.20;;
56637;SDS011;42507;51.982;20.140;2024-01-15T10:11:52;9.80;;;5.50;;
56637;SDS011;42507;51.982;20.140;2024-01-15T10:14:19;14.10;;;7.10;;
56637;SDS011;42507;51.982;20.140;2024-01-15T10:16:45;11.90;;;6.90;;
56637;SDS011;42507;51.982;20.140;2024-01-15T10:19:11;10.50;;;6.00;;
56637;SDS011;42507;51.982;20.140;2024-01-15T10:21:37;10.30;;;6.20;;
56637;SDS011;42507;51.982;20.140;2024-01-15T10:24:03;9.90;;;6.30;;
56637;SDS011;42507;51.982;20.140;2024-01-15T10:26:30;18.00;;;7.00;;
56637;SDS011;42507;51.982;20.140;2024-01-15T10:29:00;15.50;;;7.30;;
56637;SDS011;42507;51.982;20.140;2024-01-15T10:31:27;12.70;;;7.00;;
56637;SDS011;42507;51.982;20.140;2024-01-15T10:33:54;12.40;;;6.90;;
56637;SDS011;42507;51.982;20.140;2024-01-15T10:36:35;15.00;;;7.50;;
56637;SDS011;42507;51.982;20.140;2024-01-15T10:39:01;14.50;;;8.00;;
56637;SDS011;42507;51.982;20.140;2024-01-15T10:41:28;12.70;;;6.90;;
56637;SDS011;42507;51.982;20.140;2024-01-15T10:43:54;14.20;;;6.90;;
56637;SDS011;42507;51.982;20.140;2024-01-15T10:46:20;13.40;;;6.80;;
56637;SDS011;42507;51.982;20.140;2024-01-15T10:48:46;12.20;;;6.30;;
56637;SDS011;42507;51.982;20.140;2024-01-15T10:51:12;11.90;;;6.40;;
56637;SDS011;42507;51.982;20.140;2024-01-15T10:53:41;15.50;;;7.00;;
56637;SDS011;42507;51.982;20.140;2024-01-15T10:56:08;12.00;;;7.40;;
56637;SDS011;42507;51.982;20.140;2024-01-15T10:58:35;14.70;;;6.30;;
56637;SDS011;42507;51.982;20.140;2024-01-15T11:01:04;12.60;;;6.80;;
56637;SDS011;42507;51.982;20.140;2024-01-15T11:03:30;13.90;;;6.80;;
56637;SDS011;42507;51.982;20.140;2024-01-15T11:05:56;15.60;;;7.60;;
56637;SDS011;42507;51.982;20.140;2024-01-15T11:08:23;12.80;;;7.20;;
56637;SDS011;42507;51.982;20.140;2024-01-15T11:10:50;13.00;;;6.70;;
56637;SDS011;42507;51.982;20.140;2024-01-15T11:16:09;14.70;;;8.60;;
56637;SDS011;42507;51.982;20.140;2024-01-15T11:18:41;14.60;;;8.00;;
56637;SDS011;42507;51.982;20.140;2024-01-15T11:23:43;16.30;;;8.00;;
56637;SDS011;42507;51.982;20.140;2024-01-15T11:29:32;18.50;;;9.90;;
56637;SDS011;42507;51.982;20.140;2024-01-15T11:32:04;18.20;;;9.90;;
56637;SDS011;42507;51.982;20.140;2024-01-15T11:37:24;18.00;;;9.70;;
56637;SDS011;42507;51.982;20.140;2024-01-15T11:39:52;19.30;;;9.50;;
56637;SDS011;42507;51.982;20.140;2024-01-15T11:42:22;19.70;;;8.60;;
56637;SDS011;42507;51.982;20.140;2024-01-15T11:44:48;16.60;;;8.70;;
56637;SDS011;42507;51.982;20.140;2024-01-15T11:47:14;19.30;;;9.10;;
56637;SDS011;42507;51.982;20.140;2024-01-15T11:49:58;17.00;;;8.20;;
56637;SDS011;42507;51.982;20.140;2024-01-15T11:52:34;16.20;;;8.80;;
56637;SDS011;42507;51.982;20.140;2024-01-15T12:00:26;16.70;;;7.90;;
56637;SDS011;42507;51.982;20.140;2024-01-15T12:02:52;17.20;;;8.10;;
56637;SDS011;42507;51.982;20.140;2024-01-15T12:05:18;18.20;;;9.00;;
56637;SDS011;42507;51.982;20.140;2024-01-15T12:07:45;15.50;;;7.90;;
56637;SDS011;42507;51.982;20.140;2024-01-15T12:10:14;21.50;;;8.70;;
56637;SDS011;42507;51.982;20.140;2024-01-15T12:12:51;14.50;;;7.60;;
56637;SDS011;42507;51.982;20.140;2024-01-15T12:15:22;18.40;;;9.10;;
56637;SDS011;42507;51.982;20.140;2024-01-15T12:17:49;18.20;;;8.90;;
56637;SDS011;42507;51.982;20.140;2024-01-15T12:20:15;15.40;;;8.20;;
56637;SDS011;42507;51.982;20.140;2024-01-15T12:22:44;17.00;;;8.40;;
56637;SDS011;42507;51.982;20.140;2024-01-15T12:25:10;20.50;;;8.90;;
56637;SDS011;42507;51.982;20.140;2024-01-15T12:27:36;20.00;;;9.80;;
56637;SDS011;42507;51.982;20.140;2024-01-15T12:30:02;21.20;;;9.60;;
56637;SDS011;42507;51.982;20.140;2024-01-15T12:32:29;20.60;;;10.00;;
56637;SDS011;42507;51.982;20.140;2024-01-15T12:34:55;20.00;;;9.70;;
56637;SDS011;42507;51.982;20.140;2024-01-15T12:37:21;18.30;;;8.40;;
56637;SDS011;42507;51.982;20.140;2024-01-15T12:39:47;16.40;;;8.20;;
56637;SDS011;42507;51.982;20.140;2024-01-15T12:42:14;17.20;;;7.80;;
56637;SDS011;42507;51.982;20.140;2024-01-15T12:44:40;18.20;;;7.90;;
56637;SDS011;42507;51.982;20.140;2024-01-15T12:47:06;16.90;;;8.00;;
56637;SDS011;42507;51.982;20.140;2024-01-15T12:49:32;15.00;;;7.40;;
56637;SDS011;42507;51.982;20.140;2024-01-15T12:51:59;18.30;;;8.20;;
56637;SDS011;42507;51.982;20.140;2024-01-15T12:54:25;16.00;;;6.90;;
56637;SDS011;42507;51.982;20.140;2024-01-15T12:56:52;15.40;;;7.70;;
56637;SDS011;42507;51.982;20.140;2024-01-15T12:59:18;15.30;;;7.50;;
56637;SDS011;42507;51.982;20.140;2024-01-15T13:01:45;15.90;;;7.50;;
56637;SDS011;42507;51.982;20.140;2024-01-15T13:04:20;16.90;;;7.70;;
56637;SDS011;42507;51.982;20.140;2024-01-15T13:06:49;20.70;;;8.50;;
56637;SDS011;42507;51.982;20.140;2024-01-15T13:09:16;17.70;;;7.90;;
56637;SDS011;42507;51.982;20.140;2024-01-15T13:11:44;17.30;;;7.80;;
56637;SDS011;42507;51.982;20.140;2024-01-15T13:14:10;14.50;;;7.30;;
56637;SDS011;42507;51.982;20.140;2024-01-15T13:16:37;16.40;;;8.40;;
56637;SDS011;42507;51.982;20.140;2024-01-15T13:19:02;19.10;;;8.20;;
56637;SDS011;42507;51.982;20.140;2024-01-15T13:21:29;16.70;;;7.70;;
56637;SDS011;42507;51.982;20.140;2024-01-15T13:23:56;16.50;;;8.10;;
56637;SDS011;42507;51.982;20.140;2024-01-15T13:26:21;18.30;;;7.80;;
56637;SDS011;42507;51.982;20.140;2024-01-15T13:28:47;16.90;;;8.20;;
56637;SDS011;42507;51.982;20.140;2024-01-15T13:31:14;17.00;;;7.30;;
56637;SDS011;42507;51.982;20.140;2024-01-15T13:33:40;15.90;;;7.30;;
56637;SDS011;42507;51.982;20.140;2024-01-15T13:36:07;14.90;;;7.30;;
56637;SDS011;42507;51.982;20.140;2024-01-15T13:38:36;19.40;;;8.50;;
56637;SDS011;42507;51.982;20.140;2024-01-15T13:41:04;18.20;;;7.70;;
56637;SDS011;42507;51.982;20.140;2024-01-15T13:43:33;15.20;;;7.00;;
56637;SDS011;42507;51.982;20.140;2024-01-15T13:45:59;16.60;;;7.70;;
56637;SDS011;42507;51.982;20.140;2024-01-15T13:48:26;16.50;;;7.70;;
56637;SDS011;42507;51.982;20.140;2024-01-15T13:50:52;17.30;;;7.20;;
56637;SDS011;42507;51.982;20.140;2024-01-15T13:53:18;18.50;;;8.20;;
56637;SDS011;42507;51.982;20.140;2024-01-15T13:55:44;19.30;;;8.40;;
56637;SDS011;42507;51.982;20.140;2024-01-15T13:58:10;18.60;;;7.90;;
56637;SDS011;42507;51.982;20.140;2024-01-15T14:00:37;15.70;;;7.40;;
56637;SDS011;42507;51.982;20.140;2024-01-15T14:03:03;17.70;;;7.50;;
56637;SDS011;42507;51.982;20.140;2024-01-15T14:05:29;19.10;;;8.00;;
56637;SDS011;42507;51.982;20.140;2024-01-15T14:07:55;17.50;;;8.00;;
56637;SDS011;42507;51.982;20.140;2024-01-15T14:10:21;21.80;;;8.80;;
56637;SDS011;42507;51.982;20.140;2024-01-15T14:12:47;18.80;;;8.30;;
56637;SDS011;42507;51.982;20.140;2024-01-15T14:15:13;19.20;;;8.90;;
56637;SDS011;42507;51.982;20.140;2024-01-15T14:17:39;21.60;;;8.50;;
56637;SDS011;42507;51.982;20.140;2024-01-15T14:20:05;17.10;;;8.50;;
56637;SDS011;42507;51.982;20.140;2024-01-15T14:22:32;23.30;;;8.50;;
56637;SDS011;42507;51.982;20.140;2024-01-15T14:24:57;20.50;;;8.40;;
56637;SDS011;42507;51.982;20.140;2024-01-15T14:27:23;20.90;;;8.20;;